sensor_id;sensor_type;location;lat;lon;timestamp;P1;durP1;ratioP1;P2;durP2;ratioP2
21729;SDS011;11027;51.030;13.812;2023-07-02T00:00:22;1.95;;;1.23;;
21729;SDS011;11027;51.030;13.812;2023-07-02T00:02:47;2.30;;;1.40;;
21729;SDS011;11027;51.030;13.812;2023-07-02T00:05:13;2.10;;;1.20;;
21729;SDS011;11027;51.030;13.812;2023-07-02T00:07:38;2.33;;;1.30;;
21729;SDS011;11027;51.030;13.812;2023-07-02T00:10:03;2.65;;;1.40;;
21729;SDS011;11027;51.030;13.812;2023-07-02T00:12:29;3.30;;;1.30;;
21729;SDS011;11027;51.030;13.812;2023-07-02T00:14:55;2.08;;;1.02;;
21729;SDS011;11027;51.030;13.812;2023-07-02T00:17:20;1.83;;;1.00;;
21729;SDS011;11027;51.030;13.812;2023-07-02T00:19:45;1.77;;;1.00;;
21729;SDS011;11027;51.030;13.812;2023-07-02T00:22:11;6.50;;;1.10;;
21729;SDS011;11027;51.030;13.812;2023-07-02T00:24:37;1.98;;;1.70;;
21729;SDS011;11027;51.030;13.812;2023-07-02T00:27:02;1.60;;;1.08;;
21729;SDS011;11027;51.030;13.812;2023-07-02T00:29:28;1.35;;;0.90;;
21729;SDS011;11027;51.030;13.812;2023-07-02T00:31:53;3.03;;;0.93;;
21729;SDS011;11027;51.030;13.812;2023-07-02T00:34:18;2.42;;;0.90;;
21729;SDS011;11027;51.030;13.812;2023-07-02T00:36:44;2.42;;;0.80;;
21729;SDS011;11027;51.030;13.812;2023-07-02T00:39:09;4.65;;;0.88;;
21729;SDS011;11027;51.030;13.812;2023-07-02T00:41:36;5.63;;;1.20;;
21729;SDS011;11027;51.030;13.812;2023-07-02T00:44:02;1.65;;;0.90;;
21729;SDS011;11027;51.030;13.812;2023-07-02T00:46:27;1.63;;;0.90;;
21729;SDS011;11027;51.030;13.812;2023-07-02T00:48:53;1.70;;;0.93;;
21729;SDS011;11027;51.030;13.812;2023-07-02T00:51:28;1.95;;;0.70;;
21729;SDS011;11027;51.030;13.812;2023-07-02T00:53:54;4.43;;;1.20;;
21729;SDS011;11027;51.030;13.812;2023-07-02T00:56:21;1.75;;;0.80;;
21729;SDS011;11027;51.030;13.812;2023-07-02T00:58:47;1.15;;;0.80;;
21729;SDS011;11027;51.030;13.812;2023-07-02T01:01:16;1.83;;;1.08;;
21729;SDS011;11027;51.030;13.812;2023-07-02T01:03:49;7.05;;;0.80;;
21729;SDS011;11027;51.030;13.812;2023-07-02T01:06:26;1.05;;;0.80;;
21729;SDS011;11027;51.030;13.812;2023-07-02T01:08:56;2.80;;;0.75;;
21729;SDS011;11027;51.030;13.812;2023-07-02T01:11:25;1.00;;;0.80;;
21729;SDS011;11027;51.030;13.812;2023-07-02T01:14:04;1.35;;;0.70;;
21729;SDS011;11027;51.030;13.812;2023-07-02T01:16:33;3.22;;;0.80;;
21729;SDS011;11027;51.030;13.812;2023-07-02T01:19:00;1.17;;;0.75;;
21729;SDS011;11027;51.030;13.812;2023-07-02T01:21:29;1.05;;;0.82;;
21729;SDS011;11027;51.030;13.812;2023-07-02T01:23:55;1.90;;;0.70;;
21729;SDS011;11027;51.030;13.812;2023-07-02T01:26:20;0.93;;;0.77;;
21729;SDS011;11027;51.030;13.812;2023-07-02T01:28:45;1.17;;;0.93;;
21729;SDS011;11027;51.030;13.812;2023-07-02T01:31:11;1.88;;;0.63;;
21729;SDS011;11027;51.030;13.812;2023-07-02T01:33:36;1.55;;;0.82;;
21729;SDS011;11027;51.030;13.812;2023-07-02T01:36:01;0.85;;;0.68;;
21729;SDS011;11027;51.030;13.812;2023-07-02T01:38:26;2.05;;;0.55;;
21729;SDS011;11027;51.030;13.812;2023-07-02T01:40:52;0.82;;;0.70;;
21729;SDS011;11027;51.030;13.812;2023-07-02T01:43:18;2.70;;;0.70;;
21729;SDS011;11027;51.030;13.812;2023-07-02T01:45:43;0.85;;;0.80;;
21729;SDS011;11027;51.030;13.812;2023-07-02T01:48:08;1.83;;;0.80;;
21729;SDS011;11027;51.030;13.812;2023-07-02T01:50:34;1.10;;;0.65;;
21729;SDS011;11027;51.030;13.812;2023-07-02T01:52:59;1.00;;;0.80;;
21729;SDS011;11027;51.030;13.812;2023-07-02T01:55:24;1.20;;;0.65;;
21729;SDS011;11027;51.030;13.812;2023-07-02T01:57:49;1.02;;;0.82;;
21729;SDS011;11027;51.030;13.812;2023-07-02T02:00:15;0.70;;;0.70;;
21729;SDS011;11027;51.030;13.812;2023-07-02T02:02:41;0.95;;;0.63;;
21729;SDS011;11027;51.030;13.812;2023-07-02T02:05:06;2.30;;;0.70;;
21729;SDS011;11027;51.030;13.812;2023-07-02T02:07:33;1.38;;;0.80;;
21729;SDS011;11027;51.030;13.812;2023-07-02T02:10:00;2.33;;;0.73;;
21729;SDS011;11027;51.030;13.812;2023-07-02T02:12:26;2.95;;;0.90;;
21729;SDS011;11027;51.030;13.812;2023-07-02T02:14:53;3.60;;;0.80;;
21729;SDS011;11027;51.030;13.812;2023-07-02T02:17:18;0.95;;;0.80;;
21729;SDS011;11027;51.030;13.812;2023-07-02T02:19:43;1.58;;;0.98;;
21729;SDS011;11027;51.030;13.812;2023-07-02T02:22:09;2.85;;;1.00;;
21729;SDS011;11027;51.030;13.812;2023-07-02T02:24:34;1.63;;;0.80;;
21729;SDS011;11027;51.030;13.812;2023-07-02T02:26:59;2.78;;;0.90;;
21729;SDS011;11027;51.030;13.812;2023-07-02T02:29:24;1.13;;;0.80;;
21729;SDS011;11027;51.030;13.812;2023-07-02T02:31:50;1.10;;;1.00;;
21729;SDS011;11027;51.030;13.812;2023-07-02T02:34:15;5.63;;;0.88;;
21729;SDS011;11027;51.030;13.812;2023-07-02T02:36:40;1.17;;;0.80;;
21729;SDS011;11027;51.030;13.812;2023-07-02T02:39:06;1.38;;;0.75;;
21729;SDS011;11027;51.030;13.812;2023-07-02T02:41:31;0.90;;;0.90;;
21729;SDS011;11027;51.030;13.812;2023-07-02T02:43:56;2.38;;;1.17;;
21729;SDS011;11027;51.030;13.812;2023-07-02T02:46:22;1.38;;;0.80;;
21729;SDS011;11027;51.030;13.812;2023-07-02T02:48:47;0.80;;;0.80;;
21729;SDS011;11027;51.030;13.812;2023-07-02T02:51:13;1.10;;;0.90;;
21729;SDS011;11027;51.030;13.812;2023-07-02T02:53:38;2.20;;;0.90;;
21729;SDS011;11027;51.030;13.812;2023-07-02T02:56:04;1.23;;;0.80;;
21729;SDS011;11027;51.030;13.812;2023-07-02T02:58:29;0.80;;;0.80;;
21729;SDS011;11027;51.030;13.812;2023-07-02T03:00:54;4.95;;;0.95;;
21729;SDS011;11027;51.030;13.812;2023-07-02T03:03:20;1.95;;;0.85;;
21729;SDS011;11027;51.030;13.812;2023-07-02T03:05:46;2.28;;;0.80;;
21729;SDS011;11027;51.030;13.812;2023-07-02T03:08:13;2.08;;;1.95;;
21729;SDS011;11027;51.030;13.812;2023-07-02T03:10:38;1.48;;;1.38;;
21729;SDS011;11027;51.030;13.812;2023-07-02T03:13:04;0.93;;;0.75;;
21729;SDS011;11027;51.030;13.812;2023-07-02T03:15:29;1.88;;;0.95;;
21729;SDS011;11027;51.030;13.812;2023-07-02T03:17:54;2.42;;;0.80;;
21729;SDS011;11027;51.030;13.812;2023-07-02T03:20:19;3.80;;;0.70;;
21729;SDS011;11027;51.030;13.812;2023-07-02T03:22:45;1.40;;;0.68;;
21729;SDS011;11027;51.030;13.812;2023-07-02T03:25:10;0.77;;;0.70;;
21729;SDS011;11027;51.030;13.812;2023-07-02T03:27:35;1.58;;;0.80;;
21729;SDS011;11027;51.030;13.812;2023-07-02T03:30:01;1.20;;;0.85;;
21729;SDS011;11027;51.030;13.812;2023-07-02T03:32:26;4.32;;;0.70;;
21729;SDS011;11027;51.030;13.812;2023-07-02T03:34:51;2.65;;;1.00;;
21729;SDS011;11027;51.030;13.812;2023-07-02T03:37:16;1.27;;;0.80;;
21729;SDS011;11027;51.030;13.812;2023-07-02T03:39:43;1.17;;;0.90;;
21729;SDS011;11027;51.030;13.812;2023-07-02T03:42:08;1.60;;;0.70;;
21729;SDS011;11027;51.030;13.812;2023-07-02T03:44:33;2.92;;;0.80;;
21729;SDS011;11027;51.030;13.812;2023-07-02T03:46:58;4.25;;;1.00;;
21729;SDS011;11027;51.030;13.812;2023-07-02T03:49:24;1.10;;;0.73;;
21729;SDS011;11027;51.030;13.812;2023-07-02T03:51:49;1.27;;;0.90;;
21729;SDS011;11027;51.030;13.812;2023-07-02T03:54:15;3.28;;;1.05;;
21729;SDS011;11027;51.030;13.812;2023-07-02T03:56:40;3.17;;;0.90;;
21729;SDS011;11027;51.030;13.812;2023-07-02T03:59:05;3.60;;;1.00;;
21729;SDS011;11027;51.030;13.812;2023-07-02T04:01:31;2.40;;;1.10;;
21729;SDS011;11027;51.030;13.812;2023-07-02T04:03:56;5.50;;;1.10;;
21729;SDS011;11027;51.030;13.812;2023-07-02T04:06:21;1.83;;;1.00;;
21729;SDS011;11027;51.030;13.812;2023-07-02T04:08:47;2.75;;;0.95;;
21729;SDS011;11027;51.030;13.812;2023-07-02T04:11:13;2.55;;;0.82;;
21729;SDS011;11027;51.030;13.812;2023-07-02T04:13:38;1.98;;;1.23;;
21729;SDS011;11027;51.030;13.812;2023-07-02T04:16:04;1.75;;;1.08;;
21729;SDS011;11027;51.030;13.812;2023-07-02T04:18:30;2.83;;;1.20;;
21729;SDS011;11027;51.030;13.812;2023-07-02T04:20:55;5.07;;;1.00;;
21729;SDS011;11027;51.030;13.812;2023-07-02T04:23:21;1.73;;;1.33;;
21729;SDS011;11027;51.030;13.812;2023-07-02T04:25:46;2.38;;;1.17;;
21729;SDS011;11027;51.030;13.812;2023-07-02T04:28:11;2.65;;;1.20;;
21729;SDS011;11027;51.030;13.812;2023-07-02T04:30:37;3.85;;;1.40;;
21729;SDS011;11027;51.030;13.812;2023-07-02T04:33:02;1.30;;;1.20;;
21729;SDS011;11027;51.030;13.812;2023-07-02T04:35:27;5.28;;;1.25;;
21729;SDS011;11027;51.030;13.812;2023-07-02T04:37:53;4.00;;;1.58;;
21729;SDS011;11027;51.030;13.812;2023-07-02T04:40:18;1.20;;;1.10;;
21729;SDS011;11027;51.030;13.812;2023-07-02T04:42:43;4.22;;;1.45;;
21729;SDS011;11027;51.030;13.812;2023-07-02T04:45:12;4.13;;;1.50;;
21729;SDS011;11027;51.030;13.812;2023-07-02T04:47:39;2.05;;;1.38;;
21729;SDS011;11027;51.030;13.812;2023-07-02T04:50:04;3.58;;;1.40;;
21729;SDS011;11027;51.030;13.812;2023-07-02T04:52:30;2.50;;;1.42;;
21729;SDS011;11027;51.030;13.812;2023-07-02T04:54:56;4.10;;;1.70;;
21729;SDS011;11027;51.030;13.812;2023-07-02T04:57:21;3.15;;;1.88;;
21729;SDS011;11027;51.030;13.812;2023-07-02T04:59:47;1.48;;;1.20;;
21729;SDS011;11027;51.030;13.812;2023-07-02T05:02:12;3.92;;;1.63;;
21729;SDS011;11027;51.030;13.812;2023-07-02T05:04:37;1.80;;;1.40;;
21729;SDS011;11027;51.030;13.812;2023-07-02T05:07:03;2.67;;;1.40;;
21729;SDS011;11027;51.030;13.812;2023-07-02T05:09:29;1.42;;;1.23;;
21729;SDS011;11027;51.030;13.812;2023-07-02T05:11:54;3.55;;;1.77;;
21729;SDS011;11027;51.030;13.812;2023-07-02T05:14:20;2.50;;;1.35;;
21729;SDS011;11027;51.030;13.812;2023-07-02T05:16:45;2.10;;;1.50;;
21729;SDS011;11027;51.030;13.812;2023-07-02T05:19:10;1.75;;;1.20;;
21729;SDS011;11027;51.030;13.812;2023-07-02T05:21:36;2.85;;;1.77;;
21729;SDS011;11027;51.030;13.812;2023-07-02T05:24:01;3.20;;;1.67;;
21729;SDS011;11027;51.030;13.812;2023-07-02T05:26:26;1.88;;;1.40;;
21729;SDS011;11027;51.030;13.812;2023-07-02T05:28:52;3.15;;;1.63;;
21729;SDS011;11027;51.030;13.812;2023-07-02T05:31:18;2.90;;;1.63;;
21729;SDS011;11027;51.030;13.812;2023-07-02T05:33:43;2.65;;;2.20;;
21729;SDS011;11027;51.030;13.812;2023-07-02T05:36:08;2.35;;;1.70;;
21729;SDS011;11027;51.030;13.812;2023-07-02T05:38:33;4.75;;;1.50;;
21729;SDS011;11027;51.030;13.812;2023-07-02T05:40:59;2.88;;;2.20;;
21729;SDS011;11027;51.030;13.812;2023-07-02T05:43:24;3.72;;;1.75;;
21729;SDS011;11027;51.030;13.812;2023-07-02T05:45:50;1.80;;;1.70;;
21729;SDS011;11027;51.030;13.812;2023-07-02T05:48:17;5.85;;;1.90;;
21729;SDS011;11027;51.030;13.812;2023-07-02T05:50:42;1.30;;;1.20;;
21729;SDS011;11027;51.030;13.812;2023-07-02T05:53:08;4.95;;;1.60;;
21729;SDS011;11027;51.030;13.812;2023-07-02T05:55:34;3.20;;;1.50;;
21729;SDS011;11027;51.030;13.812;2023-07-02T05:58:00;2.70;;;1.65;;
21729;SDS011;11027;51.030;13.812;2023-07-02T06:00:26;3.33;;;1.70;;
21729;SDS011;11027;51.030;13.812;2023-07-02T06:02:52;1.95;;;1.40;;
21729;SDS011;11027;51.030;13.812;2023-07-02T06:05:17;1.55;;;1.42;;
21729;SDS011;11027;51.030;13.812;2023-07-02T06:07:42;4.70;;;1.25;;
21729;SDS011;11027;51.030;13.812;2023-07-02T06:10:08;3.38;;;1.27;;
21729;SDS011;11027;51.030;13.812;2023-07-02T06:12:34;2.50;;;1.65;;
21729;SDS011;11027;51.030;13.812;2023-07-02T06:14:59;3.85;;;1.50;;
21729;SDS011;11027;51.030;13.812;2023-07-02T06:17:24;3.38;;;1.48;;
21729;SDS011;11027;51.030;13.812;2023-07-02T06:19:50;3.55;;;1.25;;
21729;SDS011;11027;51.030;13.812;2023-07-02T06:22:15;2.70;;;1.45;;
21729;SDS011;11027;51.030;13.812;2023-07-02T06:24:40;6.07;;;1.38;;
21729;SDS011;11027;51.030;13.812;2023-07-02T06:27:05;3.30;;;1.40;;
21729;SDS011;11027;51.030;13.812;2023-07-02T06:29:31;3.15;;;1.55;;
21729;SDS011;11027;51.030;13.812;2023-07-02T06:31:56;2.22;;;1.20;;
21729;SDS011;11027;51.030;13.812;2023-07-02T06:34:21;2.42;;;1.75;;
21729;SDS011;11027;51.030;13.812;2023-07-02T06:36:47;1.30;;;1.20;;
21729;SDS011;11027;51.030;13.812;2023-07-02T06:39:13;3.47;;;1.40;;
21729;SDS011;11027;51.030;13.812;2023-07-02T06:41:38;2.55;;;1.45;;
21729;SDS011;11027;51.030;13.812;2023-07-02T06:44:03;3.17;;;1.60;;
21729;SDS011;11027;51.030;13.812;2023-07-02T06:46:29;3.40;;;1.40;;
21729;SDS011;11027;51.030;13.812;2023-07-02T06:48:55;1.88;;;1.35;;
21729;SDS011;11027;51.030;13.812;2023-07-02T06:51:20;2.78;;;1.50;;
21729;SDS011;11027;51.030;13.812;2023-07-02T06:53:46;4.18;;;1.70;;
21729;SDS011;11027;51.030;13.812;2023-07-02T06:56:12;3.88;;;1.60;;
21729;SDS011;11027;51.030;13.812;2023-07-02T06:58:39;3.80;;;2.03;;
21729;SDS011;11027;51.030;13.812;2023-07-02T07:01:05;7.65;;;1.60;;
21729;SDS011;11027;51.030;13.812;2023-07-02T07:03:30;3.75;;;1.65;;
21729;SDS011;11027;51.030;13.812;2023-07-02T07:05:55;3.05;;;1.30;;
21729;SDS011;11027;51.030;13.812;2023-07-02T07:08:21;3.05;;;1.30;;
21729;SDS011;11027;51.030;13.812;2023-07-02T07:10:47;4.28;;;1.50;;
21729;SDS011;11027;51.030;13.812;2023-07-02T07:13:12;1.55;;;1.20;;
21729;SDS011;11027;51.030;13.812;2023-07-02T07:15:37;5.13;;;1.60;;
21729;SDS011;11027;51.030;13.812;2023-07-02T07:18:03;3.65;;;1.60;;
21729;SDS011;11027;51.030;13.812;2023-07-02T07:20:29;3.50;;;1.60;;
21729;SDS011;11027;51.030;13.812;2023-07-02T07:22:55;2.97;;;1.40;;
21729;SDS011;11027;51.030;13.812;2023-07-02T07:25:20;5.05;;;1.70;;
21729;SDS011;11027;51.030;13.812;2023-07-02T07:27:45;2.42;;;1.48;;
21729;SDS011;11027;51.030;13.812;2023-07-02T07:30:11;3.03;;;1.40;;
21729;SDS011;11027;51.030;13.812;2023-07-02T07:32:36;5.05;;;1.80;;
21729;SDS011;11027;51.030;13.812;2023-07-02T07:35:02;3.42;;;2.00;;
21729;SDS011;11027;51.030;13.812;2023-07-02T07:37:27;1.92;;;1.77;;
21729;SDS011;11027;51.030;13.812;2023-07-02T07:39:52;3.22;;;1.67;;
21729;SDS011;11027;51.030;13.812;2023-07-02T07:42:18;1.92;;;1.70;;
21729;SDS011;11027;51.030;13.812;2023-07-02T07:44:46;3.20;;;2.00;;
21729;SDS011;11027;51.030;13.812;2023-07-02T07:47:11;3.85;;;1.90;;
21729;SDS011;11027;51.030;13.812;2023-07-02T07:49:37;3.83;;;2.10;;
21729;SDS011;11027;51.030;13.812;2023-07-02T07:52:02;2.58;;;1.90;;
21729;SDS011;11027;51.030;13.812;2023-07-02T07:54:28;3.95;;;2.30;;
21729;SDS011;11027;51.030;13.812;2023-07-02T07:56:54;4.40;;;2.20;;
21729;SDS011;11027;51.030;13.812;2023-07-02T07:59:19;3.72;;;1.73;;
21729;SDS011;11027;51.030;13.812;2023-07-02T08:01:45;4.47;;;2.08;;
21729;SDS011;11027;51.030;13.812;2023-07-02T08:04:11;4.75;;;2.70;;
21729;SDS011;11027;51.030;13.812;2023-07-02T08:06:37;2.10;;;1.80;;
21729;SDS011;11027;51.030;13.812;2023-07-02T08:09:02;2.90;;;1.60;;
21729;SDS011;11027;51.030;13.812;2023-07-02T08:11:28;2.75;;;1.55;;
21729;SDS011;11027;51.030;13.812;2023-07-02T08:13:53;2.88;;;1.58;;
21729;SDS011;11027;51.030;13.812;2023-07-02T08:16:19;2.78;;;1.50;;
21729;SDS011;11027;51.030;13.812;2023-07-02T08:18:44;1.98;;;1.30;;
21729;SDS011;11027;51.030;13.812;2023-07-02T08:21:09;1.65;;;1.52;;
21729;SDS011;11027;51.030;13.812;2023-07-02T08:23:36;1.75;;;1.30;;
21729;SDS011;11027;51.030;13.812;2023-07-02T08:26:01;3.80;;;1.40;;
21729;SDS011;11027;51.030;13.812;2023-07-02T08:28:27;3.42;;;1.40;;
21729;SDS011;11027;51.030;13.812;2023-07-02T08:30:53;1.77;;;1.30;;
21729;SDS011;11027;51.030;13.812;2023-07-02T08:33:18;3.42;;;1.90;;
21729;SDS011;11027;51.030;13.812;2023-07-02T08:35:43;2.53;;;2.15;;
21729;SDS011;11027;51.030;13.812;2023-07-02T08:38:08;1.58;;;1.40;;
21729;SDS011;11027;51.030;13.812;2023-07-02T08:40:34;4.63;;;1.58;;
21729;SDS011;11027;51.030;13.812;2023-07-02T08:42:59;3.70;;;1.70;;
21729;SDS011;11027;51.030;13.812;2023-07-02T08:45:24;3.90;;;1.38;;
21729;SDS011;11027;51.030;13.812;2023-07-02T08:47:50;2.13;;;1.35;;
21729;SDS011;11027;51.030;13.812;2023-07-02T08:50:16;1.77;;;1.48;;
21729;SDS011;11027;51.030;13.812;2023-07-02T08:52:41;3.65;;;1.35;;
21729;SDS011;11027;51.030;13.812;2023-07-02T08:55:08;1.30;;;1.20;;
21729;SDS011;11027;51.030;13.812;2023-07-02T08:57:34;4.82;;;1.50;;
21729;SDS011;11027;51.030;13.812;2023-07-02T09:00:01;1.63;;;1.02;;
21729;SDS011;11027;51.030;13.812;2023-07-02T09:02:31;2.78;;;1.33;;
21729;SDS011;11027;51.030;13.812;2023-07-02T09:05:01;2.28;;;2.03;;
21729;SDS011;11027;51.030;13.812;2023-07-02T09:07:27;3.72;;;2.13;;
21729;SDS011;11027;51.030;13.812;2023-07-02T09:09:52;1.40;;;1.30;;
21729;SDS011;11027;51.030;13.812;2023-07-02T09:12:25;1.60;;;1.30;;
21729;SDS011;11027;51.030;13.812;2023-07-02T09:15:10;2.60;;;1.27;;
21729;SDS011;11027;51.030;13.812;2023-07-02T09:17:36;2.60;;;1.50;;
21729;SDS011;11027;51.030;13.812;2023-07-02T09:20:05;2.97;;;1.48;;
21729;SDS011;11027;51.030;13.812;2023-07-02T09:22:32;2.10;;;1.47;;
21729;SDS011;11027;51.030;13.812;2023-07-02T09:24:58;4.95;;;1.42;;
21729;SDS011;11027;51.030;13.812;2023-07-02T09:27:37;2.13;;;1.20;;
21729;SDS011;11027;51.030;13.812;2023-07-02T09:32:38;3.72;;;1.00;;
21729;SDS011;11027;51.030;13.812;2023-07-02T09:35:03;0.93;;;0.88;;
21729;SDS011;11027;51.030;13.812;2023-07-02T09:37:29;1.55;;;1.40;;
21729;SDS011;11027;51.030;13.812;2023-07-02T09:39:55;2.13;;;1.15;;
21729;SDS011;11027;51.030;13.812;2023-07-02T09:42:21;1.65;;;1.08;;
21729;SDS011;11027;51.030;13.812;2023-07-02T09:44:47;13.73;;;6.80;;
21729;SDS011;11027;51.030;13.812;2023-07-02T09:47:17;10.55;;;7.38;;
21729;SDS011;11027;51.030;13.812;2023-07-02T09:49:49;5.18;;;1.25;;
21729;SDS011;11027;51.030;13.812;2023-07-02T09:52:18;1.92;;;1.13;;
21729;SDS011;11027;51.030;13.812;2023-07-02T09:54:45;2.78;;;1.10;;
21729;SDS011;11027;51.030;13.812;2023-07-02T09:57:10;2.25;;;1.10;;
21729;SDS011;11027;51.030;13.812;2023-07-02T09:59:36;2.58;;;0.90;;
21729;SDS011;11027;51.030;13.812;2023-07-02T10:02:02;1.10;;;1.00;;
21729;SDS011;11027;51.030;13.812;2023-07-02T10:04:28;1.90;;;1.13;;
21729;SDS011;11027;51.030;13.812;2023-07-02T10:07:04;2.28;;;1.23;;
21729;SDS011;11027;51.030;13.812;2023-07-02T10:12:23;1.63;;;1.08;;
21729;SDS011;11027;51.030;13.812;2023-07-02T10:14:57;2.53;;;1.30;;
21729;SDS011;11027;51.030;13.812;2023-07-02T10:17:27;2.67;;;1.30;;
21729;SDS011;11027;51.030;13.812;2023-07-02T10:20:01;1.45;;;1.20;;
21729;SDS011;11027;51.030;13.812;2023-07-02T10:22:44;2.38;;;1.40;;
21729;SDS011;11027;51.030;13.812;2023-07-02T10:25:25;3.08;;;1.20;;
21729;SDS011;11027;51.030;13.812;2023-07-02T10:27:51;1.08;;;0.98;;
21729;SDS011;11027;51.030;13.812;2023-07-02T10:30:17;2.28;;;1.10;;
21729;SDS011;11027;51.030;13.812;2023-07-02T10:32:42;2.08;;;1.13;;
21729;SDS011;11027;51.030;13.812;2023-07-02T10:35:17;2.17;;;1.20;;
21729;SDS011;11027;51.030;13.812;2023-07-02T10:37:43;1.60;;;1.38;;
21729;SDS011;11027;51.030;13.812;2023-07-02T10:40:10;1.80;;;1.20;;
21729;SDS011;11027;51.030;13.812;2023-07-02T10:42:46;2.15;;;1.08;;
21729;SDS011;11027;51.030;13.812;2023-07-02T10:45:15;4.93;;;1.52;;
21729;SDS011;11027;51.030;13.812;2023-07-02T10:47:41;3.55;;;1.23;;
21729;SDS011;11027;51.030;13.812;2023-07-02T10:52:45;1.73;;;1.20;;
21729;SDS011;11027;51.030;13.812;2023-07-02T10:55:16;2.83;;;1.42;;
21729;SDS011;11027;51.030;13.812;2023-07-02T10:57:42;1.95;;;1.08;;
21729;SDS011;11027;51.030;13.812;2023-07-02T11:00:08;0.95;;;0.90;;
21729;SDS011;11027;51.030;13.812;2023-07-02T11:02:34;2.50;;;1.25;;
21729;SDS011;11027;51.030;13.812;2023-07-02T11:05:00;1.20;;;0.90;;
21729;SDS011;11027;51.030;13.812;2023-07-02T11:07:25;1.33;;;1.00;;
21729;SDS011;11027;51.030;13.812;2023-07-02T11:09:51;2.28;;;1.20;;
21729;SDS011;11027;51.030;13.812;2023-07-02T11:12:16;3.30;;;1.05;;
21729;SDS011;11027;51.030;13.812;2023-07-02T11:14:42;4.80;;;2.55;;
21729;SDS011;11027;51.030;13.812;2023-07-02T11:17:07;2.22;;;1.38;;
21729;SDS011;11027;51.030;13.812;2023-07-02T11:19:32;1.88;;;0.93;;
21729;SDS011;11027;51.030;13.812;2023-07-02T11:21:58;3.25;;;1.05;;
21729;SDS011;11027;51.030;13.812;2023-07-02T11:26:54;1.30;;;1.15;;
21729;SDS011;11027;51.030;13.812;2023-07-02T11:29:19;3.78;;;1.13;;
21729;SDS011;11027;51.030;13.812;2023-07-02T11:31:45;2.00;;;1.20;;
21729;SDS011;11027;51.030;13.812;2023-07-02T11:34:13;3.53;;;0.98;;
21729;SDS011;11027;51.030;13.812;2023-07-02T11:36:40;4.97;;;1.10;;
21729;SDS011;11027;51.030;13.812;2023-07-02T11:39:05;1.98;;;0.90;;
21729;SDS011;11027;51.030;13.812;2023-07-02T11:41:38;1.00;;;0.90;;
21729;SDS011;11027;51.030;13.812;2023-07-02T11:44:04;1.20;;;1.00;;
21729;SDS011;11027;51.030;13.812;2023-07-02T11:46:29;2.17;;;0.98;;
21729;SDS011;11027;51.030;13.812;2023-07-02T11:48:54;1.20;;;1.00;;
21729;SDS011;11027;51.030;13.812;2023-07-02T11:51:19;3.95;;;1.15;;
21729;SDS011;11027;51.030;13.812;2023-07-02T11:53:45;4.30;;;0.88;;
21729;SDS011;11027;51.030;13.812;2023-07-02T11:56:10;1.58;;;1.40;;
21729;SDS011;11027;51.030;13.812;2023-07-02T11:58:35;1.42;;;1.10;;
21729;SDS011;11027;51.030;13.812;2023-07-02T12:01:00;1.65;;;0.98;;
21729;SDS011;11027;51.030;13.812;2023-07-02T12:03:26;2.83;;;0.90;;
21729;SDS011;11027;51.030;13.812;2023-07-02T12:05:51;1.23;;;0.90;;
21729;SDS011;11027;51.030;13.812;2023-07-02T12:08:16;4.18;;;1.25;;
21729;SDS011;11027;51.030;13.812;2023-07-02T12:10:42;2.45;;;1.30;;
21729;SDS011;11027;51.030;13.812;2023-07-02T12:13:07;1.05;;;0.90;;
21729;SDS011;11027;51.030;13.812;2023-07-02T12:15:32;2.08;;;1.13;;
21729;SDS011;11027;51.030;13.812;2023-07-02T12:17:58;4.75;;;1.27;;
21729;SDS011;11027;51.030;13.812;2023-07-02T12:20:23;2.88;;;0.85;;
21729;SDS011;11027;51.030;13.812;2023-07-02T12:22:48;4.10;;;1.05;;
21729;SDS011;11027;51.030;13.812;2023-07-02T12:25:13;4.53;;;1.15;;
21729;SDS011;11027;51.030;13.812;2023-07-02T12:27:39;3.13;;;1.20;;
21729;SDS011;11027;51.030;13.812;2023-07-02T12:30:04;1.65;;;1.30;;
21729;SDS011;11027;51.030;13.812;2023-07-02T12:32:30;2.60;;;1.65;;
21729;SDS011;11027;51.030;13.812;2023-07-02T12:34:55;3.63;;;1.70;;
21729;SDS011;11027;51.030;13.812;2023-07-02T12:37:21;2.50;;;1.52;;
21729;SDS011;11027;51.030;13.812;2023-07-02T12:39:46;2.15;;;1.33;;
21729;SDS011;11027;51.030;13.812;2023-07-02T12:42:12;6.90;;;1.60;;
21729;SDS011;11027;51.030;13.812;2023-07-02T12:44:37;3.97;;;1.33;;
21729;SDS011;11027;51.030;13.812;2023-07-02T12:47:02;4.78;;;1.50;;
21729;SDS011;11027;51.030;13.812;2023-07-02T12:49:28;2.20;;;1.38;;
21729;SDS011;11027;51.030;13.812;2023-07-02T12:51:53;2.35;;;1.70;;
21729;SDS011;11027;51.030;13.812;2023-07-02T12:54:18;83.75;;;49.92;;
21729;SDS011;11027;51.030;13.812;2023-07-02T12:56:43;123.80;;;71.60;;
21729;SDS011;11027;51.030;13.812;2023-07-02T12:59:09;36.70;;;21.52;;
21729;SDS011;11027;51.030;13.812;2023-07-02T13:01:34;8.18;;;3.40;;
21729;SDS011;11027;51.030;13.812;2023-07-02T13:03:59;5.88;;;2.75;;
21729;SDS011;11027;51.030;13.812;2023-07-02T13:06:25;6.38;;;3.20;;
21729;SDS011;11027;51.030;13.812;2023-07-02T13:08:50;4.50;;;2.67;;
21729;SDS011;11027;51.030;13.812;2023-07-02T13:11:16;6.28;;;2.47;;
21729;SDS011;11027;51.030;13.812;2023-07-02T13:13:41;5.97;;;2.40;;
21729;SDS011;11027;51.030;13.812;2023-07-02T13:16:06;3.92;;;1.55;;
21729;SDS011;11027;51.030;13.812;2023-07-02T13:18:32;9.70;;;1.75;;
21729;SDS011;11027;51.030;13.812;2023-07-02T13:20:57;4.28;;;1.75;;
21729;SDS011;11027;51.030;13.812;2023-07-02T13:23:22;2.97;;;1.40;;
21729;SDS011;11027;51.030;13.812;2023-07-02T13:25:47;3.80;;;1.30;;
21729;SDS011;11027;51.030;13.812;2023-07-02T13:28:13;5.60;;;1.77;;
21729;SDS011;11027;51.030;13.812;2023-07-02T13:30:38;5.97;;;2.30;;
21729;SDS011;11027;51.030;13.812;2023-07-02T13:33:03;4.80;;;1.77;;
21729;SDS011;11027;51.030;13.812;2023-07-02T13:35:28;4.90;;;2.10;;
21729;SDS011;11027;51.030;13.812;2023-07-02T13:37:54;12.50;;;2.65;;
21729;SDS011;11027;51.030;13.812;2023-07-02T13:40:19;5.68;;;1.77;;
21729;SDS011;11027;51.030;13.812;2023-07-02T13:42:44;3.88;;;2.10;;
21729;SDS011;11027;51.030;13.812;2023-07-02T13:45:10;9.63;;;2.17;;
21729;SDS011;11027;51.030;13.812;2023-07-02T13:47:35;4.45;;;2.08;;
21729;SDS011;11027;51.030;13.812;2023-07-02T13:50:02;7.82;;;2.50;;
21729;SDS011;11027;51.030;13.812;2023-07-02T13:52:28;7.18;;;2.28;;
21729;SDS011;11027;51.030;13.812;2023-07-02T13:54:53;4.25;;;2.30;;
21729;SDS011;11027;51.030;13.812;2023-07-02T13:57:19;5.75;;;1.98;;
21729;SDS011;11027;51.030;13.812;2023-07-02T13:59:44;4.53;;;2.47;;
21729;SDS011;11027;51.030;13.812;2023-07-02T14:02:09;3.95;;;2.10;;
21729;SDS011;11027;51.030;13.812;2023-07-02T14:04:34;2.58;;;1.83;;
21729;SDS011;11027;51.030;13.812;2023-07-02T14:07:00;1.77;;;1.47;;
21729;SDS011;11027;51.030;13.812;2023-07-02T14:09:25;4.17;;;1.97;;
21729;SDS011;11027;51.030;13.812;2023-07-02T14:11:50;4.40;;;1.80;;
21729;SDS011;11027;51.030;13.812;2023-07-02T14:14:15;3.75;;;1.75;;
21729;SDS011;11027;51.030;13.812;2023-07-02T14:16:41;2.35;;;1.70;;
21729;SDS011;11027;51.030;13.812;2023-07-02T14:19:06;4.38;;;2.13;;
21729;SDS011;11027;51.030;13.812;2023-07-02T14:21:31;5.20;;;2.10;;
21729;SDS011;11027;51.030;13.812;2023-07-02T14:23:57;3.60;;;1.80;;
21729;SDS011;11027;51.030;13.812;2023-07-02T14:26:23;3.70;;;1.98;;
21729;SDS011;11027;51.030;13.812;2023-07-02T14:28:48;7.75;;;1.90;;
21729;SDS011;11027;51.030;13.812;2023-07-02T14:31:14;2.70;;;1.90;;
21729;SDS011;11027;51.030;13.812;2023-07-02T14:33:39;3.92;;;2.30;;
21729;SDS011;11027;51.030;13.812;2023-07-02T14:36:05;10.43;;;2.22;;